Time;durP1;ratioP1;P1;durP2;ratioP2;P2;SDS_P1;SDS_P2;PMS_P1;PMS_P2;Temp;Humidity;BMP_temperature;BMP_pressure;BME280_temperature;BME280_humidity;BME280_pressure;Samples;Min_cycle;Max_cycle;Signal;HPM_P1;HPM_P2
2023/06/17 00:03:06;;;;;;;3.50;3.20;;;24.50;58.30;;;;;;222995;1267;24324;-47
2023/06/17 00:08:10;;;;;;;3.20;3.00;;;24.50;58.10;;;;;;222691;1267;22645;-46
2023/06/17 00:13:19;;;;;;;3.70;3.40;;;24.50;58.20;;;;;;222200;1268;24189;-46
2023/06/17 00:18:24;;;;;;;3.80;3.50;;;24.50;58.30;;;;;;222390;1267;23013;-47
2023/06/17 00:23:28;;;;;;;3.10;2.90;;;24.50;58.40;;;;;;222653;1267;24051;-52
2023/06/17 00:28:32;;;;;;;3.50;3.30;;;24.40;58.50;;;;;;222367;1267;22520;-50
2023/06/17 00:33:36;;;;;;;3.60;3.30;;;24.40;58.50;;;;;;222267;1265;24202;-47
2023/06/17 00:38:40;;;;;;;4.00;3.40;;;24.40;58.70;;;;;;222437;1267;22517;-45
2023/06/17 00:43:45;;;;;;;4.00;3.10;;;24.30;58.80;;;;;;222398;1267;22525;-47
2023/06/17 00:48:49;;;;;;;3.20;2.70;;;24.30;58.90;;;;;;222194;1268;25524;-48
2023/06/17 00:53:54;;;;;;;3.30;3.10;;;24.30;59.10;;;;;;222622;1265;23465;-49
2023/06/17 00:58:58;;;;;;;3.50;3.20;;;24.30;59.10;;;;;;222771;1266;24382;-48
2023/06/17 01:04:04;;;;;;;4.60;3.30;;;24.30;59.00;;;;;;222494;1267;23168;-47
2023/06/17 01:09:12;;;;;;;5.80;3.30;;;24.30;59.20;;;;;;222592;1266;22559;-47
2023/06/17 01:14:16;;;;;;;3.40;3.10;;;24.20;59.40;;;;;;222355;1268;22522;-52
2023/06/17 01:19:23;;;;;;;3.40;3.20;;;24.30;59.70;;;;;;222521;1265;24197;-50
2023/06/17 01:24:29;;;;;;;3.00;2.80;;;24.20;59.20;;;;;;222603;1265;22671;-45
2023/06/17 01:29:36;;;;;;;3.10;2.90;;;24.20;59.60;;;;;;222435;1263;22511;-46
2023/06/17 01:34:56;;;;;;;3.50;3.20;;;24.20;59.20;;;;;;222750;1262;22508;-47
2023/06/17 01:40:06;;;;;;;2.80;2.60;;;24.30;59.70;;;;;;223143;1265;25240;-48
2023/06/17 01:45:12;;;;;;;3.30;3.10;;;24.20;59.30;;;;;;222551;1265;24233;-47
2023/06/17 01:50:19;;;;;;;3.20;3.00;;;24.20;59.40;;;;;;222413;1266;22682;-52
2023/06/17 01:55:24;;;;;;;3.10;2.90;;;24.20;59.40;;;;;;222054;1269;23509;-46
2023/06/17 02:00:28;;;;;;;4.30;2.70;;;24.20;59.30;;;;;;225236;1266;26529;-48
2023/06/17 02:05:33;;;;;;;2.80;2.60;;;24.30;59.10;;;;;;225579;1267;24254;-50
2023/06/17 02:10:38;;;;;;;2.90;2.70;;;24.30;58.80;;;;;;223565;1267;22781;-49
2023/06/17 02:15:42;;;;;;;3.30;3.10;;;24.30;59.10;;;;;;222502;1267;250035;-45
2023/06/17 02:20:49;;;;;;;2.90;2.70;;;24.20;59.20;;;;;;222386;1268;24232;-46
2023/06/17 02:25:55;;;;;;;3.50;2.90;;;24.20;59.30;;;;;;222577;1263;22982;-46
2023/06/17 02:31:01;;;;;;;2.90;2.70;;;24.10;59.30;;;;;;222262;1256;24209;-51
2023/06/17 02:36:05;;;;;;;2.80;2.60;;;24.10;59.50;;;;;;222609;1267;22590;-49
2023/06/17 02:41:09;;;;;;;3.30;3.00;;;24.10;59.60;;;;;;222625;1267;22515;-49
2023/06/17 02:46:14;;;;;;;3.30;3.10;;;24.10;59.80;;;;;;222546;1249;24160;-46
2023/06/17 02:51:18;;;;;;;3.00;2.50;;;24.10;59.50;;;;;;222657;1267;25381;-41
2023/06/17 02:56:23;;;;;;;3.00;2.80;;;24.10;59.40;;;;;;222375;1262;22511;-45
2023/06/17 03:01:28;;;;;;;2.90;2.70;;;24.10;59.50;;;;;;222476;1267;22523;-45
2023/06/17 03:06:33;;;;;;;4.70;2.50;;;24.10;59.70;;;;;;221974;1260;22641;-50
2023/06/17 03:11:39;;;;;;;2.70;2.50;;;24.10;59.60;;;;;;222340;1268;25305;-46
2023/06/17 03:16:44;;;;;;;2.70;2.50;;;24.10;59.60;;;;;;222247;1268;25258;-45
2023/06/17 03:21:50;;;;;;;2.90;2.30;;;24.10;59.60;;;;;;222397;1259;24193;-46
2023/06/17 03:26:54;;;;;;;2.50;2.40;;;24.10;59.60;;;;;;222492;1267;25383;-48
2023/06/17 03:31:59;;;;;;;2.80;2.60;;;24.10;59.50;;;;;;222731;1261;22508;-45
2023/06/17 03:37:05;;;;;;;2.80;2.40;;;24.10;59.40;;;;;;222350;1263;24282;-47
2023/06/17 03:42:12;;;;;;;2.80;2.60;;;24.10;59.40;;;;;;222540;1268;22589;-47
2023/06/17 03:47:17;;;;;;;2.40;2.30;;;24.10;59.50;;;;;;222611;1266;22514;-46
2023/06/17 03:52:21;;;;;;;2.90;2.70;;;24.10;59.80;;;;;;222752;1263;22501;-48
2023/06/17 03:57:26;;;;;;;3.20;3.00;;;24.10;60.00;;;;;;222503;1265;22511;-45
2023/06/17 04:02:30;;;;;;;2.80;2.60;;;24.10;59.90;;;;;;222533;1264;22791;-46
2023/06/17 04:07:38;;;;;;;2.50;2.40;;;24.10;59.60;;;;;;222496;1269;24186;-51
2023/06/17 04:12:42;;;;;;;2.90;2.70;;;24.10;59.60;;;;;;222489;1267;22527;-48
2023/06/17 04:17:47;;;;;;;3.00;2.80;;;24.10;59.60;;;;;;222472;1268;22601;-48
2023/06/17 04:22:52;;;;;;;4.20;2.40;;;24.00;59.60;;;;;;222560;1266;22528;-46
2023/06/17 04:27:58;;;;;;;3.00;2.30;;;24.10;59.90;;;;;;222778;1261;22503;-50
2023/06/17 04:33:04;;;;;;;2.60;2.40;;;24.10;59.60;;;;;;222595;1261;25497;-53
2023/06/17 04:38:10;;;;;;;2.90;2.70;;;24.10;59.60;;;;;;222370;1267;25388;-50
2023/06/17 04:43:16;;;;;;;2.50;2.40;;;24.10;59.50;;;;;;222320;1254;25380;-51
2023/06/17 04:48:20;;;;;;;2.80;2.70;;;24.10;59.40;;;;;;222274;1261;22990;-47
2023/06/17 04:53:26;;;;;;;2.70;2.50;;;24.10;59.50;;;;;;222590;1269;22746;-47
2023/06/17 04:58:30;;;;;;;2.70;2.50;;;24.10;59.60;;;;;;222410;1268;22703;-46
2023/06/17 05:03:42;;;;;;;2.40;2.20;;;24.10;59.70;;;;;;222441;1269;24185;-49
2023/06/17 05:08:48;;;;;;;2.50;2.30;;;24.10;59.50;;;;;;222322;1263;25393;-49
2023/06/17 05:13:53;;;;;;;2.70;2.50;;;24.10;59.20;;;;;;222512;1263;22634;-44
2023/06/17 05:18:58;;;;;;;3.10;2.40;;;24.10;59.10;;;;;;222427;1266;22530;-49
2023/06/17 05:24:02;;;;;;;2.60;2.40;;;24.10;60.10;;;;;;222480;1258;22552;-49
2023/06/17 05:29:07;;;;;;;2.80;2.60;;;24.10;59.70;;;;;;222537;1261;22633;-50
2023/06/17 05:34:13;;;;;;;3.20;2.70;;;24.10;59.60;;;;;;222732;1264;22517;-48
2023/06/17 05:39:18;;;;;;;5.80;2.60;;;24.10;59.80;;;;;;222437;1267;22711;-49
2023/06/17 05:44:22;;;;;;;3.30;2.80;;;24.20;59.80;;;;;;222730;1261;23665;-55
2023/06/17 05:49:27;;;;;;;2.40;2.20;;;24.30;59.60;;;;;;222370;1251;25252;-51
2023/06/17 05:54:31;;;;;;;3.10;2.40;;;24.30;59.80;;;;;;222745;1255;22510;-51
2023/06/17 05:59:36;;;;;;;3.60;2.40;;;24.40;60.30;;;;;;222506;1264;23899;-53
2023/06/17 06:04:40;;;;;;;2.80;2.50;;;24.40;59.80;;;;;;222165;1267;24212;-52
2023/06/17 06:09:44;;;;;;;2.50;2.30;;;24.40;59.90;;;;;;222477;1255;22624;-52
2023/06/17 06:14:51;;;;;;;4.00;2.50;;;24.40;59.70;;;;;;222275;1260;22516;-53
2023/06/17 06:19:55;;;;;;;4.10;2.70;;;24.40;60.20;;;;;;222517;1261;22549;-49
2023/06/17 06:25:00;;;;;;;3.30;2.60;;;24.40;59.90;;;;;;222300;1257;24193;-50
2023/06/17 06:30:05;;;;;;;5.20;2.90;;;24.30;59.50;;;;;;222460;1261;22630;-51
2023/06/17 06:35:13;;;;;;;2.90;2.70;;;24.30;59.90;;;;;;222639;1261;22662;-50
2023/06/17 06:40:18;;;;;;;9.50;3.10;;;24.60;59.40;;;;;;222733;1266;22522;-50
2023/06/17 06:45:23;;;;;;;6.80;3.20;;;24.60;59.80;;;;;;222318;1244;24324;-49
2023/06/17 06:50:28;;;;;;;3.60;3.00;;;24.60;59.70;;;;;;222876;1260;25462;-53
2023/06/17 06:55:33;;;;;;;7.00;2.90;;;24.60;59.50;;;;;;224102;1268;22530;-51
2023/06/17 07:00:39;;;;;;;4.10;2.80;;;24.50;59.30;;;;;;226822;1269;24063;-53
2023/06/17 07:05:43;;;;;;;8.40;2.60;;;24.50;59.10;;;;;;222389;1264;22569;-55
2023/06/17 07:10:50;;;;;;;6.90;3.00;;;24.60;58.90;;;;;;222317;1264;22877;-52
2023/06/17 07:15:57;;;;;;;3.30;2.80;;;24.50;59.10;;;;;;222266;1264;22516;-54
2023/06/17 07:21:01;;;;;;;3.40;2.70;;;24.50;59.20;;;;;;222152;1254;25375;-54
2023/06/17 07:26:06;;;;;;;3.60;2.60;;;24.50;59.10;;;;;;222452;1268;22511;-51
2023/06/17 07:31:12;;;;;;;5.00;2.70;;;24.50;59.30;;;;;;222585;1263;25408;-56
2023/06/17 07:36:16;;;;;;;3.30;2.80;;;24.50;58.80;;;;;;222391;1263;25367;-53
2023/06/17 07:41:21;;;;;;;4.70;3.20;;;24.50;58.70;;;;;;222786;1267;22697;-57
2023/06/17 07:46:25;;;;;;;5.00;2.60;;;24.50;58.50;;;;;;222532;1268;22613;-57
2023/06/17 07:51:30;;;;;;;3.60;2.60;;;24.60;58.60;;;;;;222435;1268;24278;-53
2023/06/17 07:56:34;;;;;;;3.10;2.80;;;24.60;58.50;;;;;;222198;1267;25463;-52
2023/06/17 08:01:39;;;;;;;2.40;2.20;;;24.60;58.30;;;;;;222486;1254;25266;-51
2023/06/17 08:06:44;;;;;;;2.90;2.70;;;24.60;58.20;;;;;;222311;1264;24419;-51
2023/06/17 08:11:48;;;;;;;2.80;2.50;;;24.60;58.20;;;;;;222361;1260;24286;-48
2023/06/17 08:16:52;;;;;;;2.90;2.40;;;24.50;58.20;;;;;;222476;1257;23167;-51
2023/06/17 08:21:56;;;;;;;2.60;2.40;;;24.60;58.20;;;;;;222482;1267;22508;-52
2023/06/17 08:27:00;;;;;;;2.70;2.50;;;24.60;58.20;;;;;;222370;1267;22615;-50
2023/06/17 08:32:05;;;;;;;3.00;2.60;;;24.60;58.10;;;;;;222583;1257;22515;-48
2023/06/17 08:37:09;;;;;;;3.70;2.70;;;24.60;58.40;;;;;;222624;1260;22521;-47
2023/06/17 08:42:14;;;;;;;2.90;2.60;;;24.60;58.60;;;;;;222488;1254;22521;-50
2023/06/17 08:47:18;;;;;;;3.60;2.80;;;24.70;58.30;;;;;;222351;1253;22615;-51
2023/06/17 08:52:23;;;;;;;2.90;2.60;;;24.70;57.80;;;;;;222547;1257;22514;-51
2023/06/17 08:57:27;;;;;;;2.80;2.60;;;24.70;58.50;;;;;;222579;1267;24273;-53
2023/06/17 09:02:33;;;;;;;2.80;2.50;;;24.70;57.90;;;;;;222632;1267;22617;-48
2023/06/17 09:07:38;;;;;;;2.70;2.50;;;24.70;57.90;;;;;;222825;1260;23146;-51
2023/06/17 09:12:42;;;;;;;2.80;2.50;;;24.70;57.90;;;;;;221085;1268;23810;-52
2023/06/17 09:17:47;;;;;;;2.80;2.60;;;24.70;58.10;;;;;;221017;1261;22524;-52
2023/06/17 09:22:51;;;;;;;2.80;2.60;;;24.70;57.70;;;;;;221010;1260;22789;-52
2023/06/17 09:27:56;;;;;;;2.50;2.30;;;24.70;57.70;;;;;;220931;1260;22511;-50
2023/06/17 09:33:20;;;;;;;2.50;2.30;;;24.80;57.40;;;;;;222500;1264;24308;-52
2023/06/17 09:38:24;;;;;;;2.60;2.50;;;24.80;57.80;;;;;;222490;1263;23896;-50
2023/06/17 09:43:28;;;;;;;2.90;2.50;;;24.70;58.40;;;;;;222375;1257;22773;-48
2023/06/17 09:48:34;;;;;;;2.40;2.30;;;24.80;58.00;;;;;;222440;1257;24838;-51
2023/06/17 09:53:41;;;;;;;2.60;2.50;;;24.90;58.10;;;;;;222442;1265;25341;-51
2023/06/17 09:58:45;;;;;;;2.80;2.70;;;24.90;58.00;;;;;;222567;1265;22527;-53
2023/06/17 10:03:50;;;;;;;5.30;3.60;;;25.00;57.70;;;;;;222398;1246;22635;-52
2023/06/17 10:08:56;;;;;;;3.30;3.10;;;24.90;57.80;;;;;;222410;1254;24173;-49
2023/06/17 10:14:33;;;;;;;5.20;3.50;;;24.80;57.60;;;;;;222314;1265;22500;-49
2023/06/17 10:19:41;;;;;;;5.90;3.10;;;24.90;57.60;;;;;;222373;1262;25623;-51
2023/06/17 10:24:48;;;;;;;11.00;3.20;;;24.90;57.50;;;;;;222343;1256;24670;-51
2023/06/17 10:29:51;;;;;;;3.60;3.20;;;25.10;57.30;;;;;;222262;1262;22561;-49
2023/06/17 10:35:11;;;;;;;3.70;3.20;;;25.10;57.70;;;;;;222305;1261;22567;-49
2023/06/17 10:40:24;;;;;;;6.60;3.10;;;25.10;57.40;;;;;;222187;1266;22649;-53
2023/06/17 10:45:30;;;;;;;6.40;3.30;;;25.10;57.80;;;;;;222106;1247;24369;-51
2023/06/17 10:50:35;;;;;;;4.40;3.40;;;25.00;57.70;;;;;;222375;1260;24190;-51
2023/06/17 10:55:40;;;;;;;4.80;3.20;;;25.10;57.00;;;;;;222152;1256;22650;-49
2023/06/17 11:00:45;;;;;;;3.60;3.20;;;25.10;57.30;;;;;;222353;1262;22515;-50
2023/06/17 11:05:50;;;;;;;3.20;2.90;;;25.10;58.10;;;;;;222856;1253;25466;-51
2023/06/17 11:11:15;;;;;;;5.40;3.10;;;25.20;57.20;;;;;;222567;1253;22538;-51
2023/06/17 11:16:20;;;;;;;3.50;2.90;;;25.20;57.70;;;;;;222334;1253;22520;-51
2023/06/17 11:21:24;;;;;;;5.00;3.10;;;25.30;59.00;;;;;;222266;1255;22665;-54
2023/06/17 11:26:28;;;;;;;6.10;3.30;;;25.30;58.20;;;;;;222554;1261;22508;-50
2023/06/17 11:31:40;;;;;;;7.40;3.50;;;25.30;56.70;;;;;;222331;1246;22518;-48
2023/06/17 11:36:53;;;;;;;4.60;3.60;;;25.40;55.50;;;;;;222567;1254;22511;-54
2023/06/17 11:42:03;;;;;;;7.70;3.10;;;25.40;55.70;;;;;;222628;1253;25278;-50
2023/06/17 11:47:09;;;;;;;6.70;3.50;;;25.40;55.30;;;;;;222680;1261;22505;-54
2023/06/17 11:52:16;;;;;;;4.30;3.80;;;25.40;54.90;;;;;;222397;1254;22827;-49
2023/06/17 11:57:22;;;;;;;4.00;3.50;;;25.30;55.00;;;;;;222659;1247;22516;-50
2023/06/17 12:02:30;;;;;;;3.80;3.50;;;25.30;55.20;;;;;;222899;1260;22548;-49
2023/06/17 12:07:41;;;;;;;4.10;3.60;;;25.30;55.50;;;;;;228710;1261;22637;-52
2023/06/17 12:12:47;;;;;;;3.50;3.30;;;25.40;54.70;;;;;;224631;1262;25603;-52
2023/06/17 12:17:52;;;;;;;4.00;3.70;;;25.40;54.40;;;;;;222921;1262;24357;-51
2023/06/17 12:22:56;;;;;;;3.80;3.40;;;25.40;54.00;;;;;;222299;1256;22765;-52
2023/06/17 12:28:01;;;;;;;4.50;3.30;;;25.30;52.10;;;;;;222613;1260;22508;-52
2023/06/17 12:33:05;;;;;;;3.60;3.30;;;25.20;51.80;;;;;;222449;1260;22640;-54
2023/06/17 12:38:10;;;;;;;3.50;3.20;;;25.10;53.30;;;;;;222446;1260;22689;-51
2023/06/17 12:43:15;;;;;;;3.50;3.30;;;25.20;53.20;;;;;;222097;1254;22519;-51
2023/06/17 12:48:19;;;;;;;3.00;2.80;;;25.10;53.20;;;;;;222509;1260;23736;-54
2023/06/17 12:53:24;;;;;;;4.00;3.50;;;25.00;53.20;;;;;;222660;1253;22514;-53
2023/06/17 12:58:28;;;;;;;4.60;3.20;;;25.00;53.10;;;;;;222196;1252;22511;-51
2023/06/17 13:03:32;;;;;;;3.30;3.00;;;25.10;51.80;;;;;;222488;1261;25602;-53
2023/06/17 13:08:37;;;;;;;3.80;3.10;;;25.30;51.30;;;;;;222630;1254;23742;-51
2023/06/17 13:13:42;;;;;;;3.10;2.90;;;25.20;52.00;;;;;;222479;1254;25268;-52
2023/06/17 13:18:47;;;;;;;3.10;2.90;;;25.20;50.60;;;;;;222479;1261;23142;-49
2023/06/17 13:23:51;;;;;;;3.30;3.00;;;25.20;51.00;;;;;;222381;1259;24239;-53
2023/06/17 13:29:02;;;;;;;3.00;2.80;;;25.30;51.00;;;;;;222698;1245;23269;-58
2023/06/17 13:34:06;;;;;;;3.10;2.80;;;25.30;51.90;;;;;;222301;1253;22816;-52
2023/06/17 13:39:13;;;;;;;3.30;3.10;;;25.20;52.10;;;;;;222268;1265;24125;-53
2023/06/17 13:44:17;;;;;;;3.50;3.20;;;25.20;50.70;;;;;;222401;1261;22518;-54
2023/06/17 13:49:22;;;;;;;3.10;2.90;;;25.30;51.30;;;;;;222460;1260;22731;-52
2023/06/17 13:54:27;;;;;;;4.40;3.30;;;25.20;52.20;;;;;;222710;1257;22514;-52
2023/06/17 13:59:32;;;;;;;4.10;3.80;;;25.10;49.90;;;;;;222668;1249;22634;-53
2023/06/17 14:04:36;;;;;;;4.00;3.70;;;25.10;49.90;;;;;;222612;1256;25305;-51
2023/06/17 14:09:40;;;;;;;3.80;3.30;;;25.10;49.30;;;;;;222652;1261;24183;-52
2023/06/17 14:14:45;;;;;;;3.90;3.30;;;25.20;49.90;;;;;;222035;1252;496897;-53
2023/06/17 14:19:49;;;;;;;3.60;3.30;;;25.20;49.70;;;;;;222344;1254;22507;-48
2023/06/17 14:24:53;;;;;;;3.70;3.40;;;25.20;49.70;;;;;;222454;1260;22535;-56
2023/06/17 14:29:57;;;;;;;3.90;3.50;;;25.20;50.10;;;;;;222497;1253;22537;-51
2023/06/17 14:35:01;;;;;;;3.70;3.40;;;25.10;50.00;;;;;;222592;1261;22668;-54
2023/06/17 14:40:07;;;;;;;3.70;3.40;;;25.10;50.20;;;;;;222627;1257;24193;-53
2023/06/17 14:45:14;;;;;;;4.40;3.10;;;25.10;50.70;;;;;;222502;1260;22782;-50
2023/06/17 14:50:18;;;;;;;3.30;3.00;;;25.00;50.00;;;;;;222478;1252;25455;-50
2023/06/17 14:55:25;;;;;;;3.50;3.20;;;25.00;50.20;;;;;;222517;1263;22521;-53
2023/06/17 15:00:29;;;;;;;3.80;3.50;;;25.00;49.90;;;;;;222635;1253;22512;-49
2023/06/17 15:05:36;;;;;;;3.50;3.20;;;24.90;50.00;;;;;;221906;1256;22524;-52
2023/06/17 15:10:40;;;;;;;3.40;3.20;;;24.90;50.60;;;;;;222223;1255;22907;-53
2023/06/17 15:15:44;;;;;;;3.10;2.90;;;24.90;50.50;;;;;;222140;1250;22899;-50
2023/06/17 15:20:49;;;;;;;3.10;2.90;;;24.90;50.50;;;;;;222121;1262;24165;-52
2023/06/17 15:25:53;;;;;;;3.60;3.30;;;24.90;50.60;;;;;;222554;1262;23955;-51
2023/06/17 15:30:57;;;;;;;3.40;3.20;;;24.90;50.70;;;;;;222280;1262;22520;-50
2023/06/17 15:36:04;;;;;;;3.50;3.20;;;24.90;50.80;;;;;;222290;1262;22517;-47
2023/06/17 15:41:09;;;;;;;3.50;3.20;;;24.70;51.00;;;;;;222308;1262;22750;-52
2023/06/17 15:46:13;;;;;;;3.90;3.60;;;24.80;51.20;;;;;;222520;1252;22505;-52
2023/06/17 15:51:18;;;;;;;6.60;3.60;;;24.80;51.20;;;;;;222243;1258;22523;-52
2023/06/17 15:56:22;;;;;;;3.60;3.40;;;24.80;51.40;;;;;;222400;1246;22504;-50
2023/06/17 16:01:27;;;;;;;4.00;3.60;;;24.80;51.60;;;;;;222183;1262;22630;-50
2023/06/17 16:06:31;;;;;;;3.90;3.60;;;24.90;51.90;;;;;;222754;1253;25413;-53
2023/06/17 16:11:35;;;;;;;3.60;3.30;;;24.80;52.50;;;;;;222675;1261;22498;-52
2023/06/17 16:16:39;;;;;;;5.50;3.50;;;24.80;52.30;;;;;;222286;1260;22511;-51
2023/06/17 16:21:44;;;;;;;5.00;3.20;;;24.90;52.20;;;;;;222558;1260;22623;-54
2023/06/17 16:26:48;;;;;;;3.80;3.50;;;24.90;52.90;;;;;;222526;1256;22788;-49
2023/06/17 16:31:52;;;;;;;4.20;3.90;;;24.90;52.70;;;;;;222471;1262;25258;-52
2023/06/17 16:36:57;;;;;;;3.80;3.40;;;24.90;52.70;;;;;;222827;1258;22516;-50
2023/06/17 16:42:01;;;;;;;3.60;3.30;;;24.90;52.40;;;;;;222713;1259;22513;-51
2023/06/17 16:47:09;;;;;;;4.50;3.60;;;24.80;52.60;;;;;;222577;1262;24251;-48
2023/06/17 16:52:13;;;;;;;3.50;3.20;;;24.70;52.30;;;;;;222710;1262;24303;-53
2023/06/17 16:57:17;;;;;;;3.50;3.30;;;24.70;52.50;;;;;;222437;1254;22530;-51
2023/06/17 17:02:22;;;;;;;3.70;3.40;;;24.70;52.70;;;;;;222422;1266;24999;-52
2023/06/17 17:07:26;;;;;;;6.00;3.40;;;24.60;52.60;;;;;;222598;1262;23930;-53
2023/06/17 17:12:30;;;;;;;4.30;3.80;;;24.50;52.20;;;;;;222518;1262;22766;-52
2023/06/17 17:17:35;;;;;;;3.80;3.00;;;24.50;52.10;;;;;;222430;1260;22511;-54
2023/06/17 17:22:40;;;;;;;3.60;3.20;;;24.40;51.60;;;;;;222402;1253;22533;-50
2023/06/17 17:27:44;;;;;;;3.70;2.80;;;24.10;52.20;;;;;;222350;1265;24388;-49
2023/06/17 17:32:48;;;;;;;3.00;2.80;;;24.20;51.80;;;;;;222637;1253;22623;-51
2023/06/17 17:37:53;;;;;;;3.10;2.60;;;24.20;51.90;;;;;;222515;1261;22517;-52
2023/06/17 17:42:57;;;;;;;3.80;3.50;;;24.30;52.70;;;;;;222483;1262;23177;-50
2023/06/17 17:48:01;;;;;;;4.30;3.10;;;24.30;52.60;;;;;;222644;1267;24241;-51
2023/06/17 17:53:05;;;;;;;3.70;3.40;;;24.30;52.70;;;;;;222659;1253;25915;-51
2023/06/17 17:58:10;;;;;;;3.90;3.40;;;24.40;52.80;;;;;;222226;1255;22517;-49
2023/06/17 18:03:16;;;;;;;7.50;3.20;;;24.40;53.30;;;;;;222482;1253;22572;-51
2023/06/17 18:08:21;;;;;;;12.70;4.20;;;24.50;53.00;;;;;;222779;1259;23961;-54
2023/06/17 18:13:27;;;;;;;4.30;3.50;;;24.50;53.70;;;;;;222371;1263;22521;-52
2023/06/17 18:18:31;;;;;;;11.10;4.00;;;24.50;54.00;;;;;;222293;1263;22521;-49
2023/06/17 18:23:35;;;;;;;6.10;3.60;;;24.50;54.90;;;;;;222660;1252;22605;-52
2023/06/17 18:28:41;;;;;;;4.50;3.90;;;24.50;54.20;;;;;;221962;1253;24167;-52
2023/06/17 18:33:52;;;;;;;6.30;3.70;;;24.30;55.20;;;;;;222458;1249;22518;-56
2023/06/17 18:39:07;;;;;;;4.00;3.70;;;24.40;55.90;;;;;;222531;1256;25279;-55
2023/06/17 18:44:14;;;;;;;6.40;4.00;;;24.30;55.50;;;;;;222286;1265;22744;-52
2023/06/17 18:49:23;;;;;;;15.60;4.20;;;24.20;55.50;;;;;;222808;1253;25390;-50
2023/06/17 18:54:27;;;;;;;21.40;4.40;;;24.20;56.00;;;;;;222578;1258;22511;-48
2023/06/17 18:59:33;;;;;;;13.50;4.00;;;24.10;56.30;;;;;;222706;1245;23891;-52
2023/06/17 19:04:38;;;;;;;21.80;4.30;;;24.10;55.90;;;;;;222573;1262;23888;-51
2023/06/17 19:09:44;;;;;;;4.60;3.80;;;24.00;56.30;;;;;;222601;1250;25268;-58
2023/06/17 19:14:48;;;;;;;12.90;3.80;;;23.90;56.60;;;;;;222451;1261;22514;-56
2023/06/17 19:19:52;;;;;;;8.10;3.60;;;23.90;56.20;;;;;;222553;1253;22573;-59
2023/06/17 19:24:57;;;;;;;7.60;4.80;;;24.20;56.40;;;;;;222495;1259;22633;-55
2023/06/17 19:30:03;;;;;;;20.00;4.50;;;24.30;57.90;;;;;;221940;1254;22576;-54
2023/06/17 19:35:07;;;;;;;15.00;4.00;;;24.40;58.20;;;;;;222219;1260;25204;-50
2023/06/17 19:40:13;;;;;;;14.50;5.00;;;24.40;59.80;;;;;;222308;1262;22517;-46
2023/06/17 19:45:26;;;;;;;17.20;4.60;;;24.60;62.00;;;;;;222585;1253;23935;-44
2023/06/17 19:50:32;;;;;;;8.60;4.50;;;24.70;60.80;;;;;;222356;1255;25218;-47
2023/06/17 19:55:37;;;;;;;10.70;7.00;;;24.70;59.30;;;;;;222459;1265;23948;-48
2023/06/17 20:00:41;;;;;;;11.70;7.40;;;24.60;58.50;;;;;;222481;1265;23912;-47
2023/06/17 20:05:46;;;;;;;10.80;7.90;;;24.60;58.50;;;;;;222425;1265;25594;-46
2023/06/17 20:10:50;;;;;;;15.20;9.00;;;24.60;57.90;;;;;;222754;1265;23950;-49
2023/06/17 20:15:55;;;;;;;9.80;7.80;;;24.70;57.80;;;;;;222599;1268;22522;-49
2023/06/17 20:20:59;;;;;;;11.50;7.50;;;24.70;57.60;;;;;;222483;1268;22638;-48
2023/06/17 20:26:03;;;;;;;13.00;7.70;;;24.80;58.10;;;;;;222357;1265;22777;-50
2023/06/17 20:31:08;;;;;;;11.70;6.90;;;24.90;59.80;;;;;;222936;1266;22632;-46
2023/06/17 20:36:12;;;;;;;13.60;6.00;;;25.00;59.70;;;;;;222268;1263;22512;-47
2023/06/17 20:41:16;;;;;;;12.80;6.20;;;25.10;60.00;;;;;;222725;1267;22757;-47
2023/06/17 20:46:21;;;;;;;8.80;5.70;;;25.00;60.50;;;;;;222543;1262;22518;-47
2023/06/17 20:51:25;;;;;;;11.80;5.90;;;24.90;59.90;;;;;;222873;1262;24214;-51
2023/06/17 20:56:35;;;;;;;8.90;5.40;;;24.90;59.60;;;;;;222673;1269;22517;-41
2023/06/17 21:01:40;;;;;;;11.60;4.90;;;24.90;60.00;;;;;;222506;1268;24221;-40
2023/06/17 21:06:44;;;;;;;13.60;5.30;;;24.90;59.70;;;;;;222590;1267;22521;-40
2023/06/17 21:11:48;;;;;;;6.40;5.00;;;24.90;59.60;;;;;;222423;1266;22518;-38
2023/06/17 21:16:53;;;;;;;7.60;5.40;;;24.90;59.50;;;;;;222243;1265;22629;-38
2023/06/17 21:21:57;;;;;;;7.80;4.80;;;24.80;59.70;;;;;;222297;1264;24184;-37
2023/06/17 21:27:02;;;;;;;11.70;5.50;;;24.80;59.90;;;;;;222538;1246;24301;-38
2023/06/17 21:32:09;;;;;;;8.20;6.00;;;24.80;59.60;;;;;;222365;1263;22591;-40
2023/06/17 21:37:13;;;;;;;11.40;5.20;;;24.80;60.00;;;;;;222587;1249;25477;-38
2023/06/17 21:42:17;;;;;;;7.80;5.40;;;24.90;59.60;;;;;;222548;1255;24197;-41
2023/06/17 21:47:21;;;;;;;8.40;5.00;;;25.00;59.50;;;;;;222371;1260;22512;-38
2023/06/17 21:52:26;;;;;;;6.30;5.10;;;24.90;59.70;;;;;;222653;1261;22537;-40
2023/06/17 21:57:30;;;;;;;5.80;4.80;;;24.90;60.10;;;;;;222698;1255;25609;-39
2023/06/17 22:02:34;;;;;;;6.40;4.80;;;24.80;60.10;;;;;;221929;1263;24721;-39
2023/06/17 22:07:38;;;;;;;5.80;5.00;;;24.90;60.10;;;;;;222124;1256;25251;-39
2023/06/17 22:12:43;;;;;;;8.30;5.00;;;24.90;59.90;;;;;;222329;1257;24280;-39
2023/06/17 22:17:47;;;;;;;6.90;5.30;;;24.90;60.20;;;;;;222364;1267;22512;-39
2023/06/17 22:22:51;;;;;;;6.90;5.40;;;24.90;60.40;;;;;;222440;1253;22514;-39
2023/06/17 22:27:55;;;;;;;8.60;6.00;;;24.90;60.50;;;;;;222385;1262;24339;-38
2023/06/17 22:33:00;;;;;;;8.10;5.60;;;24.90;60.00;;;;;;222746;1245;25539;-40
2023/06/17 22:38:04;;;;;;;8.40;5.90;;;24.80;60.30;;;;;;222578;1257;22530;-38
2023/06/17 22:43:09;;;;;;;11.20;6.00;;;24.80;59.90;;;;;;222707;1252;25227;-39
2023/06/17 22:48:14;;;;;;;12.80;7.60;;;24.90;60.20;;;;;;222629;1260;22562;-40
2023/06/17 22:53:18;;;;;;;19.80;9.40;;;24.90;60.70;;;;;;222324;1264;22735;-38
2023/06/17 22:58:23;;;;;;;15.70;8.50;;;25.00;62.10;;;;;;222485;1261;25380;-39
2023/06/17 23:03:28;;;;;;;13.60;8.00;;;25.10;62.50;;;;;;222555;1267;24251;-40
2023/06/17 23:08:33;;;;;;;13.80;8.60;;;25.10;62.10;;;;;;222405;1264;22518;-39
2023/06/17 23:13:37;;;;;;;15.00;8.00;;;25.10;62.10;;;;;;222552;1260;23931;-39
2023/06/17 23:18:41;;;;;;;21.70;7.70;;;25.10;62.10;;;;;;222657;1267;24098;-38
2023/06/17 23:23:45;;;;;;;12.90;7.50;;;25.10;61.90;;;;;;222489;1262;22612;-38
2023/06/17 23:28:50;;;;;;;10.80;7.40;;;25.00;61.90;;;;;;222532;1266;22517;-40
2023/06/17 23:33:54;;;;;;;12.70;7.00;;;25.00;61.50;;;;;;222453;1257;24216;-40
2023/06/17 23:38:59;;;;;;;11.80;7.10;;;25.10;61.30;;;;;;222231;1260;22695;-40
2023/06/17 23:44:03;;;;;;;10.50;6.80;;;25.00;61.70;;;;;;222252;1263;24121;-40
2023/06/17 23:49:07;;;;;;;9.60;7.40;;;25.00;61.30;;;;;;222456;1262;24168;-42
2023/06/17 23:54:12;;;;;;;11.80;7.90;;;25.00;61.30;;;;;;222446;1262;22616;-40
2023/06/17 23:59:20;;;;;;;11.80;7.40;;;25.00;61.40;;;;;;222503;1260;23928;-40
